Terminal Aerodrome Forecast
Issued by NWS Buffalo, NY

Home | Current Version | Previous Version | Text Only | Print | Product List | Glossary On
Versions: 1 2 3 4 5 6 7 8 9 10 11 12 13 14 15 16 17 18 19 20 21 22 23 24 25 26 27 28
392
FTUS41 KBUF 101720
TAFART
TAF
KART 101720Z 1018/1118 VRB03KT P6SM BKN030
     FM102100 VRB03KT P6SM BKN040
     FM102300 00000KT P6SM SCT040
     FM110800 18004KT P6SM BKN040
     FM111400 19008KT 2SM -SHSN OVC030
     FM111700 20009KT P6SM BKN035=

USA.gov is the U.S. government's official web portal to all federal, state and local government web resources and services.